createdAt,value
2023-03-17T00:01:56.858Z,100472.91
2023-03-17T00:04:26.286Z,100475.28
2023-03-17T00:06:54.494Z,100484.44
2023-03-17T00:09:22.672Z,100477.03
2023-03-17T00:11:50.361Z,100481.41
2023-03-17T00:14:18.125Z,100485.09
2023-03-17T00:16:50.026Z,100482.03
2023-03-17T00:19:33.338Z,100471.44
2023-03-17T00:22:03.280Z,100460.91
2023-03-17T00:24:31.458Z,100449.75
2023-03-17T00:26:58.893Z,100457.81
2023-03-17T00:29:26.942Z,100456.28
2023-03-17T00:31:57.073Z,100442.38
2023-03-17T00:34:23.945Z,100450.75
2023-03-17T00:36:52.454Z,100451.13
2023-03-17T00:39:19.899Z,100442.53
2023-03-17T00:41:50.359Z,100443.19
2023-03-17T00:44:17.512Z,100436.91
2023-03-17T00:46:44.749Z,100433.47
2023-03-17T00:49:23.477Z,100439.03
2023-03-17T00:51:51.445Z,100435.81
2023-03-17T00:54:21.385Z,100432.34
2023-03-17T00:56:50.939Z,100432.53
2023-03-17T00:59:37.262Z,100421.97
2023-03-17T01:02:04.366Z,100427.94
2023-03-17T01:04:31.260Z,100426.56
2023-03-17T01:06:59.351Z,100418.59
2023-03-17T01:09:28.425Z,100421.09
2023-03-17T01:11:57.665Z,100415.50
2023-03-17T01:14:24.857Z,100417.94
2023-03-17T01:16:55.474Z,100419.69
2023-03-17T01:19:23.035Z,100416.69
2023-03-17T01:21:50.250Z,100431.75
2023-03-17T01:24:17.066Z,100427.91
2023-03-17T01:26:44.593Z,100421.19
2023-03-17T01:29:12.224Z,100415.06
2023-03-17T01:31:39.369Z,100415.63
2023-03-17T01:34:06.351Z,100407.00
2023-03-17T01:36:34.327Z,100402.88
2023-03-17T01:39:01.589Z,100405.47
2023-03-17T01:41:28.407Z,100407.38
2023-03-17T01:43:55.220Z,100399.44
2023-03-17T01:46:29.188Z,100402.78
2023-03-17T01:49:06.857Z,100398.34
2023-03-17T01:51:52.669Z,100391.16
2023-03-17T01:55:11.559Z,100398.19
2023-03-17T01:57:51.170Z,100394.06
2023-03-17T02:00:24.115Z,100393.41
2023-03-17T02:02:56.615Z,100386.47
2023-03-17T02:05:33.452Z,100384.00
2023-03-17T02:08:14.547Z,100386.47
2023-03-17T02:10:43.432Z,100382.16
2023-03-17T02:13:14.189Z,100370.84
2023-03-17T02:15:51.759Z,100373.72
2023-03-17T02:18:23.644Z,100375.44
2023-03-17T02:20:56.819Z,100369.22
2023-03-17T02:23:24.765Z,100366.81
2023-03-17T02:25:54.119Z,100365.97
2023-03-17T02:28:30.128Z,100365.56
2023-03-17T02:30:57.906Z,100367.56
2023-03-17T02:33:24.807Z,100363.19
2023-03-17T02:35:55.102Z,100372.84
2023-03-17T02:38:22.222Z,100365.38
2023-03-17T02:40:49.262Z,100356.13
2023-03-17T02:43:16.754Z,100354.22
2023-03-17T02:45:43.617Z,100343.47
2023-03-17T02:48:12.050Z,100352.09
2023-03-17T02:50:39.029Z,100354.88
2023-03-17T02:53:06.729Z,100343.47
2023-03-17T02:55:33.790Z,100345.19
2023-03-17T02:58:03.137Z,100350.38
2023-03-17T03:00:30.318Z,100354.69
2023-03-17T03:02:57.336Z,100355.34
2023-03-17T03:05:24.824Z,100345.56
2023-03-17T03:07:52.304Z,100350.16
2023-03-17T03:10:19.394Z,100333.28
2023-03-17T03:12:47.365Z,100343.47
2023-03-17T03:15:14.633Z,100342.72
2023-03-17T03:17:42.039Z,100352.09
2023-03-17T03:20:11.459Z,100350.16
2023-03-17T03:22:38.969Z,100351.06
2023-03-17T03:25:08.699Z,100347.19
2023-03-17T03:27:36.075Z,100337.50
2023-03-17T03:30:04.377Z,100350.16
2023-03-17T03:32:31.552Z,100344.41
2023-03-17T03:34:58.506Z,100356.69
2023-03-17T03:37:26.016Z,100359.19
2023-03-17T03:39:53.008Z,100358.19
2023-03-17T03:42:19.811Z,100354.00
2023-03-17T03:44:46.635Z,100352.16
2023-03-17T03:47:13.460Z,100354.19
2023-03-17T03:49:40.292Z,100358.63
2023-03-17T03:52:07.811Z,100370.13
2023-03-17T03:54:35.172Z,100365.31
2023-03-17T03:57:03.782Z,100362.25
2023-03-17T03:59:30.748Z,100376.44
2023-03-17T04:01:57.624Z,100378.38
2023-03-17T04:04:24.485Z,100379.44
2023-03-17T04:06:51.321Z,100383.84
2023-03-17T04:09:18.229Z,100385.00
2023-03-17T04:11:45.029Z,100382.22
2023-03-17T04:14:11.885Z,100381.47
2023-03-17T04:16:38.667Z,100383.59
2023-03-17T04:19:05.775Z,100372.56
2023-03-17T04:21:33.192Z,100379.97
2023-03-17T04:24:05.219Z,100370.25
2023-03-17T04:26:32.587Z,100369.59
2023-03-17T04:28:59.421Z,100371.53
2023-03-17T04:31:26.401Z,100362.88
2023-03-17T04:33:53.480Z,100372.97
2023-03-17T04:36:23.187Z,100375.78
2023-03-17T04:38:50.015Z,100373.19
2023-03-17T04:41:16.977Z,100379.41
2023-03-17T04:43:43.765Z,100367.81
2023-03-17T04:46:10.997Z,100370.41
2023-03-17T04:48:38.045Z,100378.63
2023-03-17T04:51:05.355Z,100376.81
2023-03-17T04:53:32.592Z,100377.88
2023-03-17T04:55:59.472Z,100388.63
2023-03-17T04:58:30.808Z,100377.13
2023-03-17T05:00:58.790Z,100371.75
2023-03-17T05:03:27.771Z,100370.97
2023-03-17T05:05:55.578Z,100373.09
2023-03-17T05:08:22.598Z,100375.84
2023-03-17T05:10:49.598Z,100373.28
2023-03-17T05:13:16.867Z,100373.66
2023-03-17T05:15:52.862Z,100370.22
2023-03-17T05:18:21.689Z,100363.97
2023-03-17T05:20:48.470Z,100361.19
2023-03-17T05:23:15.324Z,100354.28
2023-03-17T05:25:42.515Z,100354.69
2023-03-17T05:28:10.204Z,100358.47
2023-03-17T05:30:37.842Z,100362.16
2023-03-17T05:33:06.070Z,100370.97
2023-03-17T05:35:33.115Z,100361.00
2023-03-17T05:38:00.055Z,100364.63
2023-03-17T05:40:27.163Z,100379.78
2023-03-17T05:42:54.030Z,100376.16
2023-03-17T05:45:20.837Z,100373.47
2023-03-17T05:47:47.675Z,100369.13
2023-03-17T05:50:14.960Z,100376.16
2023-03-17T05:52:41.928Z,100375.47
2023-03-17T05:55:09.534Z,100368.06
2023-03-17T05:57:36.673Z,100377.09
2023-03-17T06:00:05.282Z,100371.91
2023-03-17T06:02:32.665Z,100367.63
2023-03-17T06:04:59.683Z,100370.66
2023-03-17T06:07:28.392Z,100366.09
2023-03-17T06:09:58.169Z,100365.03
2023-03-17T06:12:25.831Z,100359.47
2023-03-17T06:14:52.957Z,100361.19
2023-03-17T06:17:22.160Z,100368.47
2023-03-17T06:19:49.528Z,100370.41
2023-03-17T06:22:16.848Z,100364.84
2023-03-17T06:24:43.978Z,100369.16
2023-03-17T06:27:11.072Z,100364.53
2023-03-17T06:29:38.135Z,100365.59
2023-03-17T06:32:19.194Z,100363.09
2023-03-17T06:34:47.452Z,100371.91
2023-03-17T06:37:14.659Z,100374.78
2023-03-17T06:39:42.267Z,100370.75
2023-03-17T06:42:09.309Z,100362.72
2023-03-17T06:44:37.170Z,100368.66
2023-03-17T06:47:04.912Z,100370.19
2023-03-17T06:49:32.529Z,100368.06
2023-03-17T06:51:59.828Z,100365.56
2023-03-17T06:54:26.977Z,100375.72
2023-03-17T06:56:53.873Z,100369.06
2023-03-17T06:59:22.781Z,100366.09
2023-03-17T07:01:50.389Z,100364.19
2023-03-17T07:04:17.348Z,100376.25
2023-03-17T07:06:44.913Z,100372.22
2023-03-17T07:09:11.969Z,100374.94
2023-03-17T07:11:39.190Z,100378.63
2023-03-17T07:14:06.753Z,100378.81
2023-03-17T07:16:33.982Z,100384.34
2023-03-17T07:19:02.095Z,100381.88
2023-03-17T07:21:29.271Z,100385.81
2023-03-17T07:23:56.316Z,100383.44
2023-03-17T07:26:23.223Z,100373.78
2023-03-17T07:28:50.175Z,100371.66
2023-03-17T07:31:17.146Z,100373.16
2023-03-17T07:33:44.000Z,100380.13
2023-03-17T07:36:11.068Z,100375.72
2023-03-17T07:38:38.323Z,100374.19
2023-03-17T07:41:09.727Z,100374.19
2023-03-17T07:43:38.058Z,100373.97
2023-03-17T07:46:06.555Z,100358.25
2023-03-17T07:48:34.334Z,100367.28
2023-03-17T07:51:01.507Z,100363.41
2023-03-17T07:53:28.409Z,100361.00
2023-03-17T07:55:55.232Z,100366.31
2023-03-17T07:58:22.129Z,100366.19
2023-03-17T08:00:49.083Z,100366.19
2023-03-17T08:03:15.875Z,100373.06
2023-03-17T08:05:42.925Z,100368.44
2023-03-17T08:08:10.691Z,100361.63
2023-03-17T08:10:37.542Z,100368.75
2023-03-17T08:13:04.702Z,100386.97
2023-03-17T08:15:31.527Z,100382.31
2023-03-17T08:17:58.400Z,100374.50
2023-03-17T08:20:25.311Z,100377.72
2023-03-17T08:22:52.119Z,100369.16
2023-03-17T08:25:18.906Z,100369.16
2023-03-17T08:27:45.726Z,100366.25
2023-03-17T08:30:13.586Z,100372.28
2023-03-17T08:32:41.167Z,100381.97
2023-03-17T08:35:11.776Z,100392.31
2023-03-17T08:37:38.614Z,100384.97
2023-03-17T08:40:06.162Z,100378.41
2023-03-17T08:42:32.950Z,100371.47
2023-03-17T08:44:59.874Z,100366.50
2023-03-17T08:47:27.407Z,100371.19
2023-03-17T08:49:56.294Z,100364.84
2023-03-17T08:52:23.230Z,100352.31
2023-03-17T08:54:50.591Z,100340.28
2023-03-17T08:57:18.062Z,100331.00
2023-03-17T08:59:47.508Z,100350.16
2023-03-17T09:02:15.905Z,100361.06
2023-03-17T09:04:42.903Z,100370.31
2023-03-17T09:07:10.424Z,100370.94
2023-03-17T09:09:38.028Z,100378.69
2023-03-17T09:12:07.396Z,100368.59
2023-03-17T09:14:43.474Z,100370.56
2023-03-17T09:17:13.800Z,100368.94
2023-03-17T09:19:41.558Z,100360.44
2023-03-17T09:22:13.497Z,100371.28
2023-03-17T09:24:40.446Z,100376.19
2023-03-17T09:27:07.569Z,100371.72
2023-03-17T09:29:34.788Z,100370.97
2023-03-17T09:32:01.657Z,100377.31
2023-03-17T09:34:28.495Z,100369.16
2023-03-17T09:36:55.519Z,100371.22
2023-03-17T09:39:24.116Z,100366.66
2023-03-17T09:42:19.267Z,100375.50
2023-03-17T09:45:27.026Z,100369.84
2023-03-17T09:48:02.991Z,100375.06
2023-03-17T09:50:53.447Z,100365.72
2023-03-17T09:53:35.860Z,100363.22
2023-03-17T09:56:13.227Z,100360.44
2023-03-17T09:58:55.257Z,100363.63
2023-03-17T10:01:23.165Z,100357.94
2023-03-17T10:03:50.959Z,100358.66
2023-03-17T10:06:38.822Z,100359.38
2023-03-17T10:09:20.619Z,100362.56
2023-03-17T10:11:54.837Z,100359.84
2023-03-17T10:14:38.583Z,100367.44
2023-03-17T10:17:19.201Z,100372.00
2023-03-17T10:19:58.194Z,100375.81
2023-03-17T10:22:38.408Z,100386.97
2023-03-17T10:25:15.432Z,100380.06
2023-03-17T10:27:51.594Z,100385.22
2023-03-17T10:30:22.385Z,100382.50
2023-03-17T10:32:52.426Z,100393.09
2023-03-17T10:35:22.110Z,100406.84
2023-03-17T10:37:49.286Z,100407.69
2023-03-17T10:40:28.684Z,100398.31
2023-03-17T10:43:08.687Z,100404.97
2023-03-17T10:45:46.352Z,100391.50
2023-03-17T10:48:20.102Z,100404.59
2023-03-17T10:50:49.373Z,100395.47
2023-03-17T10:53:29.410Z,100402.63
2023-03-17T10:56:09.874Z,100405.53
2023-03-17T10:58:53.554Z,100399.53
2023-03-17T11:01:29.722Z,100397.72
2023-03-17T11:03:57.710Z,100403.56
2023-03-17T11:06:43.921Z,100411.38
2023-03-17T11:09:18.484Z,100393.88
2023-03-17T11:11:49.914Z,100399.94
2023-03-17T11:14:19.699Z,100397.53
2023-03-17T11:16:54.452Z,100392.00
2023-03-17T11:19:52.329Z,100389.31
2023-03-17T11:22:40.438Z,100373.66
2023-03-17T11:25:19.938Z,100376.75
2023-03-17T11:27:56.719Z,100378.13
2023-03-17T11:30:43.668Z,100376.97
2023-03-17T11:33:41.674Z,100369.97
2023-03-17T11:36:36.232Z,100365.19
2023-03-17T11:39:35.281Z,100364.50
2023-03-17T11:42:15.522Z,100356.00
2023-03-17T11:45:11.703Z,100357.88
2023-03-17T11:48:11.713Z,100363.69
2023-03-17T11:50:48.498Z,100356.03
2023-03-17T11:53:21.726Z,100362.16
2023-03-17T11:55:57.781Z,100377.00
2023-03-17T11:58:39.460Z,100361.25
2023-03-17T12:01:12.134Z,100360.28
2023-03-17T12:04:09.640Z,100362.25
2023-03-17T12:06:50.732Z,100350.97
2023-03-17T12:09:30.791Z,100354.47
2023-03-17T12:12:01.380Z,100347.47
2023-03-17T12:14:52.425Z,100343.00
2023-03-17T12:17:39.334Z,100352.88
2023-03-17T12:20:28.140Z,100348.97
2023-03-17T12:23:06.641Z,100351.91
2023-03-17T12:25:57.758Z,100342.84
2023-03-17T12:28:38.811Z,100339.63
2023-03-17T12:31:17.653Z,100340.84
2023-03-17T12:34:07.821Z,100336.63
2023-03-17T12:36:38.123Z,100342.59
2023-03-17T12:39:19.005Z,100346.81
2023-03-17T12:42:25.409Z,100347.38
2023-03-17T12:45:14.953Z,100347.41
2023-03-17T12:48:00.061Z,100332.97
2023-03-17T12:50:49.149Z,100328.94
2023-03-17T12:53:30.113Z,100318.38
2023-03-17T12:56:28.772Z,100316.31
2023-03-17T12:59:05.847Z,100319.03
2023-03-17T13:02:13.040Z,100317.31
2023-03-17T13:05:00.843Z,100311.22
2023-03-17T13:07:54.776Z,100314.63
2023-03-17T13:10:39.853Z,100312.56
2023-03-17T13:13:13.044Z,100310.00
2023-03-17T13:15:40.398Z,100300.56
2023-03-17T13:18:29.668Z,100299.69
2023-03-17T13:20:56.680Z,100289.91
2023-03-17T13:23:46.296Z,100290.72
2023-03-17T13:26:20.140Z,100293.25
2023-03-17T13:28:51.022Z,100297.66
2023-03-17T13:31:27.194Z,100301.16
2023-03-17T13:34:03.028Z,100305.31
2023-03-17T13:36:59.054Z,100316.88
2023-03-17T13:39:46.119Z,100316.44
2023-03-17T13:43:15.379Z,100295.50
2023-03-17T13:45:44.815Z,100299.03
2023-03-17T13:48:38.059Z,100287.75
2023-03-17T13:51:08.583Z,100280.63
2023-03-17T13:53:41.290Z,100276.47
2023-03-17T13:56:22.420Z,100284.25
2023-03-17T13:59:05.974Z,100283.41
2023-03-17T14:01:42.169Z,100270.81
2023-03-17T14:04:44.746Z,100273.69
2023-03-17T14:07:20.391Z,100270.28
2023-03-17T14:09:48.511Z,100273.69
2023-03-17T14:12:29.589Z,100267.25
2023-03-17T14:15:12.133Z,100262.50
2023-03-17T14:17:48.894Z,100262.31
2023-03-17T14:20:15.814Z,100255.84
2023-03-17T14:22:47.389Z,100253.91
2023-03-17T14:25:24.089Z,100254.63
2023-03-17T14:27:57.872Z,100252.44
2023-03-17T14:30:34.776Z,100244.34
2023-03-17T14:33:13.931Z,100249.75
2023-03-17T14:35:43.556Z,100257.94
2023-03-17T14:38:25.385Z,100263.06
2023-03-17T14:41:15.511Z,100256.13
2023-03-17T14:43:44.486Z,100257.03
2023-03-17T14:46:26.196Z,100244.78
2023-03-17T14:49:21.316Z,100238.03
2023-03-17T14:51:57.286Z,100231.56
2023-03-17T14:54:31.477Z,100226.44
2023-03-17T14:57:07.597Z,100228.03
2023-03-17T14:59:38.874Z,100228.91
2023-03-17T15:02:28.529Z,100226.16
2023-03-17T15:05:26.429Z,100221.69
2023-03-17T15:07:53.946Z,100219.03
2023-03-17T15:10:25.939Z,100219.94
2023-03-17T15:13:06.319Z,100220.69
2023-03-17T15:15:37.891Z,100213.88
2023-03-17T15:18:13.098Z,100217.84
2023-03-17T15:20:44.320Z,100215.81
2023-03-17T15:23:25.130Z,100212.88
2023-03-17T15:25:57.276Z,100220.91
2023-03-17T15:28:31.585Z,100206.56
2023-03-17T15:31:13.524Z,100212.03
2023-03-17T15:33:42.469Z,100212.38
2023-03-17T15:36:31.212Z,100206.41
2023-03-17T15:38:58.955Z,100207.59
2023-03-17T15:41:26.147Z,100209.66
2023-03-17T15:43:53.699Z,100211.38
2023-03-17T15:46:27.780Z,100206.25
2023-03-17T15:48:55.161Z,100205.56
2023-03-17T15:51:22.683Z,100202.50
2023-03-17T15:53:49.542Z,100195.47
2023-03-17T15:56:20.471Z,100200.09
2023-03-17T15:58:52.460Z,100193.25
2023-03-17T16:01:20.886Z,100201.28
2023-03-17T16:03:48.996Z,100206.91
2023-03-17T16:06:24.194Z,100202.78
2023-03-17T16:08:51.694Z,100197.00
2023-03-17T16:11:30.121Z,100198.53
2023-03-17T16:13:59.662Z,100198.75
2023-03-17T16:16:37.339Z,100204.94
2023-03-17T16:19:20.216Z,100199.31
2023-03-17T16:21:47.745Z,100198.13
2023-03-17T16:24:22.791Z,100204.97
2023-03-17T16:26:50.505Z,100212.16
2023-03-17T16:29:19.841Z,100213.84
2023-03-17T16:31:50.173Z,100210.75
2023-03-17T16:34:23.414Z,100213.78
2023-03-17T16:36:50.937Z,100220.25
2023-03-17T16:39:19.552Z,100213.44
2023-03-17T16:41:48.662Z,100200.28
2023-03-17T16:44:20.976Z,100210.34
2023-03-17T16:46:48.893Z,100207.44
2023-03-17T16:49:20.932Z,100212.03
2023-03-17T16:51:49.471Z,100199.03
2023-03-17T16:54:17.283Z,100207.91
2023-03-17T16:56:44.918Z,100204.13
2023-03-17T16:59:20.803Z,100200.19
2023-03-17T17:01:47.848Z,100209.22
2023-03-17T17:04:14.703Z,100215.03
2023-03-17T17:06:41.447Z,100216.34
2023-03-17T17:09:08.355Z,100224.72
2023-03-17T17:11:35.343Z,100238.84
2023-03-17T17:14:02.296Z,100236.63
2023-03-17T17:16:34.405Z,100231.63
2023-03-17T17:19:03.717Z,100230.22
2023-03-17T17:21:31.995Z,100236.31
2023-03-17T17:23:58.941Z,100235.94
2023-03-17T17:26:25.840Z,100237.81
2023-03-17T17:28:52.656Z,100243.91
2023-03-17T17:31:19.826Z,100245.06
2023-03-17T17:33:46.685Z,100257.31
2023-03-17T17:36:16.999Z,100247.06
2023-03-17T17:38:44.037Z,100264.19
2023-03-17T17:41:13.068Z,100265.69
2023-03-17T17:43:41.080Z,100272.09
2023-03-17T17:46:20.357Z,100269.31
2023-03-17T17:48:47.796Z,100272.66
2023-03-17T17:51:14.902Z,100275.72
2023-03-17T17:53:41.791Z,100277.00
2023-03-17T17:56:15.051Z,100283.50
2023-03-17T17:58:42.663Z,100296.41
2023-03-17T18:01:12.994Z,100285.81
2023-03-17T18:03:42.716Z,100286.47
2023-03-17T18:06:10.359Z,100276.16
2023-03-17T18:08:37.265Z,100282.25
2023-03-17T18:11:04.242Z,100283.72
2023-03-17T18:13:31.244Z,100273.97
2023-03-17T18:15:58.509Z,100279.75
2023-03-17T18:18:25.351Z,100281.78
2023-03-17T18:20:53.828Z,100282.03
2023-03-17T18:23:21.600Z,100280.31
2023-03-17T18:25:49.331Z,100287.47
2023-03-17T18:28:17.188Z,100278.91
2023-03-17T18:30:45.153Z,100287.72
2023-03-17T18:33:19.980Z,100286.59
2023-03-17T18:35:52.166Z,100288.06
2023-03-17T18:38:19.157Z,100287.81
2023-03-17T18:40:46.413Z,100291.84
2023-03-17T18:43:13.474Z,100286.00
2023-03-17T18:45:40.484Z,100282.16
2023-03-17T18:48:07.366Z,100287.75
2023-03-17T18:50:34.323Z,100290.94
2023-03-17T18:53:01.292Z,100280.63
2023-03-17T18:55:28.170Z,100290.09
2023-03-17T18:57:55.050Z,100285.28
2023-03-17T19:00:25.202Z,100289.00
2023-03-17T19:02:52.912Z,100288.44
2023-03-17T19:05:20.574Z,100287.88
2023-03-17T19:07:47.526Z,100296.34
2023-03-17T19:10:15.383Z,100291.19
2023-03-17T19:12:44.466Z,100286.75
2023-03-17T19:15:12.844Z,100284.34
2023-03-17T19:17:40.297Z,100294.34
2023-03-17T19:20:08.719Z,100290.22
2023-03-17T19:22:35.753Z,100292.22
2023-03-17T19:25:04.344Z,100295.09
2023-03-17T19:27:31.376Z,100295.09
2023-03-17T19:29:58.373Z,100298.81
2023-03-17T19:32:25.357Z,100296.25
2023-03-17T19:34:52.456Z,100306.41
2023-03-17T19:37:19.359Z,100303.13
2023-03-17T19:39:46.224Z,100292.53
2023-03-17T19:42:13.340Z,100303.41
2023-03-17T19:44:40.656Z,100294.84
2023-03-17T19:47:08.388Z,100296.84
2023-03-17T19:49:37.418Z,100301.16
2023-03-17T19:52:06.544Z,100296.84
2023-03-17T19:54:34.313Z,100307.72
2023-03-17T19:57:01.255Z,100305.09
2023-03-17T19:59:28.112Z,100299.09
2023-03-17T20:01:55.610Z,100303.53
2023-03-17T20:04:23.207Z,100308.28
2023-03-17T20:06:55.375Z,100293.97
2023-03-17T20:09:25.408Z,100302.69
2023-03-17T20:11:54.547Z,100299.97
2023-03-17T20:14:21.692Z,100302.69
2023-03-17T20:16:49.298Z,100312.84
2023-03-17T20:19:16.496Z,100304.56
2023-03-17T20:21:43.862Z,100314.00
2023-03-17T20:24:12.940Z,100308.44
2023-03-17T20:26:40.930Z,100316.28
2023-03-17T20:29:08.638Z,100322.59
2023-03-17T20:31:37.505Z,100320.00
2023-03-17T20:34:05.055Z,100328.31
2023-03-17T20:36:31.978Z,100325.72
2023-03-17T20:38:59.039Z,100323.00
2023-03-17T20:41:25.910Z,100322.28
2023-03-17T20:43:53.123Z,100323.44
2023-03-17T20:46:24.185Z,100329.72
2023-03-17T20:48:58.360Z,100330.00
2023-03-17T20:51:27.014Z,100332.03
2023-03-17T20:53:55.012Z,100343.91
2023-03-17T20:56:24.178Z,100338.59
2023-03-17T20:58:53.243Z,100337.72
2023-03-17T21:01:21.718Z,100348.00
2023-03-17T21:03:50.300Z,100348.91
2023-03-17T21:06:18.329Z,100349.16
2023-03-17T21:08:46.215Z,100347.44
2023-03-17T21:11:19.692Z,100349.16
2023-03-17T21:13:47.135Z,100356.59
2023-03-17T21:16:27.741Z,100353.19
2023-03-17T21:18:54.775Z,100355.19
2023-03-17T21:21:22.826Z,100347.16
2023-03-17T21:23:49.785Z,100344.59
2023-03-17T21:26:17.351Z,100348.59
2023-03-17T21:28:44.544Z,100357.72
2023-03-17T21:31:13.344Z,100357.72
2023-03-17T21:33:40.354Z,100350.59
2023-03-17T21:36:07.788Z,100346.28
2023-03-17T21:38:34.983Z,100334.59
2023-03-17T21:41:33.358Z,100339.56
2023-03-17T21:44:02.240Z,100338.59
2023-03-17T21:46:29.776Z,100335.16
2023-03-17T21:48:56.970Z,100346.03
2023-03-17T21:51:25.148Z,100357.88
2023-03-17T21:53:53.045Z,100364.00
2023-03-17T21:56:20.804Z,100364.28
2023-03-17T21:58:49.005Z,100362.31
2023-03-17T22:01:18.626Z,100368.84
2023-03-17T22:03:45.465Z,100368.00
2023-03-17T22:06:13.924Z,100357.28
2023-03-17T22:08:41.173Z,100361.16
2023-03-17T22:11:13.456Z,100365.88
2023-03-17T22:13:41.421Z,100363.41
2023-03-17T22:16:10.502Z,100362.69
2023-03-17T22:18:38.213Z,100361.69
2023-03-17T22:21:08.190Z,100375.25
2023-03-17T22:23:41.108Z,100368.97
2023-03-17T22:26:12.565Z,100382.56
2023-03-17T22:28:40.753Z,100382.69
2023-03-17T22:31:23.818Z,100377.53
2023-03-17T22:33:55.356Z,100366.25
2023-03-17T22:36:24.465Z,100366.78
2023-03-17T22:38:51.637Z,100375.34
2023-03-17T22:41:24.420Z,100371.03
2023-03-17T22:43:51.974Z,100369.59
2023-03-17T22:46:20.803Z,100378.00
2023-03-17T22:48:48.704Z,100379.88
2023-03-17T22:51:20.979Z,100386.44
2023-03-17T22:53:49.280Z,100373.56
2023-03-17T22:56:18.242Z,100392.94
2023-03-17T22:58:46.824Z,100386.81
2023-03-17T23:01:16.751Z,100395.66
2023-03-17T23:03:45.204Z,100399.53
2023-03-17T23:06:13.248Z,100400.88
2023-03-17T23:08:42.764Z,100402.00
2023-03-17T23:11:21.183Z,100397.72
2023-03-17T23:13:49.265Z,100396.28
2023-03-17T23:16:17.151Z,100402.69
2023-03-17T23:18:46.811Z,100410.09
2023-03-17T23:21:36.732Z,100407.38
2023-03-17T23:24:05.788Z,100415.03
2023-03-17T23:26:35.074Z,100408.19
2023-03-17T23:29:03.380Z,100406.44
2023-03-17T23:31:30.306Z,100400.06
2023-03-17T23:33:57.157Z,100400.06
2023-03-17T23:36:24.309Z,100406.44
2023-03-17T23:38:52.265Z,100414.88
2023-03-17T23:41:19.399Z,100420.53
2023-03-17T23:43:46.821Z,100426.94
2023-03-17T23:46:14.753Z,100427.22
2023-03-17T23:48:42.953Z,100427.63
2023-03-17T23:51:12.684Z,100439.47
2023-03-17T23:53:39.858Z,100434.41
2023-03-17T23:56:08.435Z,100435.41
2023-03-17T23:58:36.197Z,100433.69
